Time;durP1;ratioP1;P1;durP2;ratioP2;P2;SDS_P1;SDS_P2;PMS_P1;PMS_P2;Temp;Humidity;BMP_temperature;BMP_pressure;BME280_temperature;BME280_humidity;BME280_pressure;Samples;Min_cycle;Max_cycle;Signal;HPM_P1;HPM_P2
2023/08/02 00:01:52;;;;;;;0.38;0.38;;;23.40;63.70;;;23.81;48.76;94090.56;5077391;28;20187;-39
2023/08/02 00:04:19;;;;;;;0.30;0.30;;;23.40;63.80;;;23.79;48.83;94098.91;5076138;28;20187;-39
2023/08/02 00:06:47;;;;;;;0.40;0.40;;;23.40;63.70;;;23.79;48.72;94090.88;5076152;28;20203;-39
2023/08/02 00:09:14;;;;;;;0.40;0.40;;;23.40;63.70;;;23.79;48.69;94098.09;5077263;28;20197;-39
2023/08/02 00:11:41;;;;;;;0.40;0.40;;;23.50;63.80;;;23.78;48.82;94099.19;5077218;28;20270;-39
2023/08/02 00:14:08;;;;;;;0.40;0.40;;;23.40;63.70;;;23.75;48.61;94100.56;5077695;28;20191;-39
2023/08/02 00:16:35;;;;;;;0.40;0.40;;;23.40;63.60;;;23.73;48.69;94096.59;5076929;28;20191;-39
2023/08/02 00:19:02;;;;;;;0.40;0.40;;;23.40;63.60;;;23.73;48.57;94105.44;5077280;28;20230;-39
2023/08/02 00:21:30;;;;;;;0.40;0.40;;;23.40;63.70;;;23.73;48.71;94101.94;5059728;28;20205;-39
2023/08/02 00:23:57;;;;;;;0.40;0.40;;;23.40;63.80;;;23.72;48.51;94108.41;5077003;28;20186;-39
2023/08/02 00:26:24;;;;;;;0.40;0.40;;;23.40;63.70;;;23.69;48.54;94104.41;5075936;28;20281;-39
2023/08/02 00:28:51;;;;;;;0.40;0.40;;;23.30;63.70;;;23.70;48.68;94107.91;5075916;28;20234;-39
2023/08/02 00:31:18;;;;;;;0.40;0.40;;;23.30;63.60;;;23.70;48.62;94118.63;5077116;28;20305;-39
2023/08/02 00:33:46;;;;;;;0.40;0.40;;;23.30;63.60;;;23.66;48.75;94119.19;5077032;28;20198;-39
2023/08/02 00:36:13;;;;;;;0.40;0.40;;;23.30;63.60;;;23.67;48.68;94115.44;5075812;28;20252;-39
2023/08/02 00:38:40;;;;;;;0.40;0.40;;;23.30;63.70;;;23.67;48.55;94120.78;5076513;28;20218;-39
2023/08/02 00:41:07;;;;;;;0.50;0.50;;;23.30;63.60;;;23.65;48.52;94120.28;5076907;28;20215;-39
2023/08/02 00:43:40;;;;;;;0.40;0.40;;;23.30;63.60;;;23.64;48.56;94120.56;5075749;28;20692;-39
2023/08/02 00:46:09;;;;;;;0.40;0.40;;;23.30;63.70;;;23.63;48.72;94119.78;5076529;28;20218;-39
2023/08/02 00:48:37;;;;;;;0.40;0.40;;;23.30;63.70;;;23.61;48.56;94119.28;5075351;28;20191;-39
2023/08/02 00:51:08;;;;;;;0.40;0.40;;;23.30;63.70;;;23.59;48.67;94116.09;5058951;28;20203;-39
2023/08/02 00:53:35;;;;;;;0.40;0.40;;;23.20;63.50;;;23.58;48.45;94122.56;5075463;28;20206;-39
2023/08/02 00:56:03;;;;;;;0.40;0.40;;;23.20;63.60;;;23.57;48.74;94118.28;5076365;28;20221;-39
2023/08/02 00:58:30;;;;;;;0.40;0.40;;;23.20;63.60;;;23.56;48.71;94115.88;5075614;28;20288;-39
2023/08/02 01:01:07;;;;;;;0.35;0.35;;;23.20;63.70;;;23.57;48.74;94128.19;5076116;28;20183;-39
2023/08/02 01:03:44;;;;;;;0.40;0.40;;;23.20;63.70;;;23.54;48.63;94124.22;5076259;28;20179;-39
2023/08/02 01:06:35;;;;;;;0.40;0.40;;;23.20;63.60;;;23.51;48.56;94124.81;5058939;28;20205;-39
2023/08/02 01:09:12;;;;;;;0.40;0.40;;;23.20;63.60;;;23.48;48.55;94131.53;5075790;28;20182;-39
2023/08/02 01:12:03;;;;;;;0.40;0.40;;;23.20;63.60;;;23.45;48.67;94137.47;5059176;28;20543;-39
2023/08/02 01:14:33;;;;;;;0.60;0.60;;;23.10;63.60;;;23.44;48.57;94137.78;5075120;28;20203;-39
2023/08/02 01:17:13;;;;;;;0.40;0.40;;;23.20;63.60;;;23.42;48.49;94135.38;5074264;28;20216;-39
2023/08/02 01:19:42;;;;;;;0.43;0.43;;;23.10;63.60;;;23.42;48.73;94135.38;5075682;28;20213;-39
2023/08/02 01:22:09;;;;;;;0.40;0.40;;;23.10;63.70;;;23.41;48.71;94144.50;5075198;28;20205;-39
2023/08/02 01:24:37;;;;;;;0.40;0.40;;;23.10;63.70;;;23.41;48.77;94133.81;5075194;28;20235;-39
2023/08/02 01:27:21;;;;;;;0.40;0.40;;;23.10;63.70;;;23.39;48.80;94130.63;5074694;28;20578;-39
2023/08/02 01:29:51;;;;;;;0.45;0.45;;;23.10;63.80;;;23.39;48.87;94144.00;5075165;28;20183;-39
2023/08/02 01:32:21;;;;;;;0.40;0.40;;;23.00;63.70;;;23.38;48.92;94142.41;5074767;28;20201;-39
2023/08/02 01:34:50;;;;;;;0.40;0.40;;;23.00;63.70;;;23.38;48.81;94145.09;5076205;28;20549;-39
2023/08/02 01:37:17;;;;;;;0.40;0.40;;;23.00;63.80;;;23.37;48.94;94143.50;5075576;28;20308;-39
2023/08/02 01:39:44;;;;;;;0.40;0.40;;;23.00;63.80;;;23.37;48.94;94140.03;5075688;28;20206;-39
2023/08/02 01:42:11;;;;;;;0.40;0.40;;;23.00;63.80;;;23.36;48.81;94138.44;5075448;28;20282;-39
2023/08/02 01:44:38;;;;;;;0.40;0.40;;;23.00;63.80;;;23.35;48.93;94140.31;5074330;28;20338;-39
2023/08/02 01:47:05;;;;;;;0.40;0.40;;;23.00;63.80;;;23.35;49.01;94137.63;5075362;28;20219;-39
2023/08/02 01:49:32;;;;;;;0.40;0.40;;;23.00;63.80;;;23.36;49.02;94146.47;5074373;28;20217;-39
2023/08/02 01:51:59;;;;;;;0.45;0.45;;;23.00;63.80;;;23.36;48.92;94141.88;5075133;28;20600;-39
2023/08/02 01:54:27;;;;;;;0.40;0.40;;;23.00;63.80;;;23.36;49.10;94149.13;5074735;28;20527;-39
2023/08/02 01:56:54;;;;;;;0.47;0.47;;;23.00;63.90;;;23.36;48.98;94146.47;5074647;28;20240;-39
2023/08/02 01:59:21;;;;;;;0.50;0.50;;;23.00;63.90;;;23.36;48.92;94154.50;5074980;28;20221;-39
2023/08/02 02:01:48;;;;;;;0.40;0.40;;;23.00;63.90;;;23.34;48.73;94142.19;5075422;28;20531;-39
2023/08/02 02:04:15;;;;;;;0.40;0.40;;;23.00;63.80;;;23.33;48.94;94139.81;5057678;28;20209;-39
2023/08/02 02:06:43;;;;;;;0.30;0.30;;;23.00;63.90;;;23.32;49.08;94149.72;5074192;28;20222;-39
2023/08/02 02:09:10;;;;;;;0.40;0.40;;;23.00;63.80;;;23.30;49.15;94143.06;5075099;28;20276;-39
2023/08/02 02:11:37;;;;;;;0.30;0.30;;;23.00;63.80;;;23.31;48.83;94150.00;5074871;28;20630;-39
2023/08/02 02:14:04;;;;;;;0.38;0.38;;;23.00;63.80;;;23.28;48.80;94150.59;5074167;28;20197;-39
2023/08/02 02:16:31;;;;;;;0.30;0.30;;;23.00;63.80;;;23.28;48.92;94154.06;5074083;28;20194;-39
2023/08/02 02:18:59;;;;;;;0.40;0.40;;;23.00;63.80;;;23.29;49.14;94154.84;5073795;28;20221;-39
2023/08/02 02:21:27;;;;;;;0.40;0.40;;;23.00;63.90;;;23.28;48.98;94148.72;5074017;28;20191;-39
2023/08/02 02:23:55;;;;;;;0.40;0.40;;;23.00;63.90;;;23.27;49.24;94149.78;5074006;28;20226;-39
2023/08/02 02:26:26;;;;;;;0.40;0.40;;;23.00;63.90;;;23.27;48.92;94157.03;5074901;28;20264;-39
2023/08/02 02:28:53;;;;;;;0.40;0.40;;;22.90;63.80;;;23.26;49.00;94150.88;5073839;28;20230;-39
2023/08/02 02:31:22;;;;;;;0.40;0.40;;;22.90;63.80;;;23.24;48.97;94152.25;5074820;28;20289;-39
2023/08/02 02:33:50;;;;;;;0.35;0.35;;;22.90;63.80;;;23.24;49.24;94146.91;5057443;28;20298;-39
2023/08/02 02:36:18;;;;;;;0.40;0.40;;;22.90;63.80;;;23.22;48.82;94141.03;5073846;28;20201;-39
2023/08/02 02:38:45;;;;;;;0.40;0.40;;;22.90;63.90;;;23.22;49.03;94146.38;5073681;28;20222;-39
2023/08/02 02:41:12;;;;;;;0.40;0.40;;;22.90;63.90;;;23.20;49.16;94135.97;5074753;28;20649;-39
2023/08/02 02:43:39;;;;;;;0.40;0.40;;;22.90;63.80;;;23.20;49.09;94138.66;5075306;28;20285;-39
2023/08/02 02:46:06;;;;;;;0.40;0.40;;;22.90;63.90;;;23.21;49.07;94144.81;5074584;28;20254;-39
2023/08/02 02:48:33;;;;;;;0.40;0.40;;;22.90;64.00;;;23.20;49.17;94146.69;5074560;28;20191;-39
2023/08/02 02:51:00;;;;;;;0.40;0.40;;;22.90;63.90;;;23.18;49.45;94143.53;5074649;28;20187;-39
2023/08/02 02:53:27;;;;;;;0.40;0.40;;;22.90;64.00;;;23.18;49.06;94140.84;5073698;28;20668;-39
2023/08/02 02:55:56;;;;;;;0.40;0.40;;;22.90;64.00;;;23.17;49.13;94147.28;5074735;28;20251;-39
2023/08/02 02:58:23;;;;;;;0.40;0.40;;;22.90;64.00;;;23.15;49.33;94144.06;5073465;28;20194;-39
2023/08/02 03:00:50;;;;;;;0.43;0.43;;;22.90;64.00;;;23.14;49.19;94147.81;5074568;28;20594;-39
2023/08/02 03:03:17;;;;;;;0.40;0.40;;;22.80;63.90;;;23.13;49.11;94140.88;5074542;28;20582;-39
2023/08/02 03:05:44;;;;;;;0.40;0.40;;;22.80;63.90;;;23.12;49.27;94148.13;5074557;28;20648;-39
2023/08/02 03:08:11;;;;;;;0.30;0.30;;;22.80;63.90;;;23.09;49.34;94137.97;5074605;28;20241;-39
2023/08/02 03:10:38;;;;;;;0.38;0.38;;;22.80;63.90;;;23.09;48.90;94150.56;5074523;28;20212;-39
2023/08/02 03:13:06;;;;;;;0.30;0.30;;;22.80;64.00;;;23.10;49.16;94144.13;5074444;28;20207;-39
2023/08/02 03:15:33;;;;;;;0.40;0.40;;;22.80;64.00;;;23.09;49.11;94139.88;5074403;28;20592;-39
2023/08/02 03:18:00;;;;;;;0.45;0.45;;;22.80;64.00;;;23.09;49.19;94150.56;5074488;28;20199;-39
2023/08/02 03:20:27;;;;;;;0.30;0.30;;;22.80;64.00;;;23.09;49.09;94142.53;5074874;28;20280;-39
2023/08/02 03:22:54;;;;;;;0.30;0.30;;;22.80;64.10;;;23.08;49.08;94148.97;5074916;28;20205;-39
2023/08/02 03:25:21;;;;;;;0.40;0.40;;;22.80;64.00;;;23.07;49.22;94142.84;5074364;28;20186;-39
2023/08/02 03:27:48;;;;;;;0.30;0.30;;;22.80;64.10;;;23.08;48.99;94147.09;5074506;28;20596;-39
2023/08/02 03:30:15;;;;;;;0.40;0.40;;;22.80;64.10;;;23.08;49.13;94140.94;5074255;28;20668;-39
2023/08/02 03:32:42;;;;;;;0.40;0.40;;;22.80;64.10;;;23.08;49.41;94140.94;5074375;28;20192;-39
2023/08/02 03:35:10;;;;;;;0.50;0.50;;;22.80;64.10;;;23.08;49.49;94133.72;5074221;28;20198;-39
2023/08/02 03:37:37;;;;;;;0.40;0.40;;;22.80;64.20;;;23.09;49.44;94137.19;5073395;28;20209;-39
2023/08/02 03:40:05;;;;;;;0.30;0.30;;;22.80;64.20;;;23.08;49.64;94138.28;5075713;28;20214;-39
2023/08/02 03:42:32;;;;;;;0.45;0.45;;;22.80;64.30;;;23.10;49.47;94133.44;5077751;28;20221;-39
2023/08/02 03:44:59;;;;;;;0.40;0.40;;;22.80;64.30;;;23.09;49.59;94127.28;5077893;28;20548;-39
2023/08/02 03:47:26;;;;;;;0.35;0.35;;;22.80;64.20;;;23.10;49.71;94136.91;5076716;28;20298;-39
2023/08/02 03:49:53;;;;;;;0.40;0.40;;;22.80;64.30;;;23.11;49.72;94133.16;5077458;28;20198;-39
2023/08/02 03:52:20;;;;;;;0.40;0.40;;;22.80;64.20;;;23.12;49.67;94129.38;5076995;28;20191;-39
2023/08/02 03:54:48;;;;;;;0.40;0.40;;;22.80;64.30;;;23.13;49.59;94132.84;5077554;28;20281;-39
2023/08/02 03:57:15;;;;;;;0.40;0.40;;;22.80;64.20;;;23.12;49.74;94133.94;5077497;28;20232;-39
2023/08/02 03:59:42;;;;;;;0.30;0.30;;;22.80;64.20;;;23.12;49.65;94137.41;5077218;28;20218;-39
2023/08/02 04:02:09;;;;;;;0.40;0.40;;;22.90;64.30;;;23.11;49.70;94125.13;5077435;28;20623;-39
2023/08/02 04:04:36;;;;;;;0.38;0.38;;;22.80;64.20;;;23.12;49.45;94129.38;5077479;28;20186;-39
2023/08/02 04:07:03;;;;;;;0.30;0.30;;;22.80;64.10;;;23.15;49.33;94130.69;5077337;28;20201;-39
2023/08/02 04:09:32;;;;;;;0.40;0.40;;;22.90;64.20;;;23.13;49.69;94130.97;5077330;28;20281;-39
2023/08/02 04:11:59;;;;;;;0.30;0.30;;;22.80;64.20;;;23.13;49.55;94133.66;5076314;28;20198;-39
2023/08/02 04:14:26;;;;;;;0.30;0.30;;;22.90;64.30;;;23.13;49.61;94122.97;5076342;28;20221;-39
2023/08/02 04:16:53;;;;;;;0.40;0.40;;;22.90;64.20;;;23.15;49.61;94126.13;5076300;28;20197;-39
2023/08/02 04:19:20;;;;;;;0.32;0.32;;;22.90;64.20;;;23.14;49.70;94124.56;5077137;28;20708;-39
2023/08/02 04:21:48;;;;;;;0.35;0.35;;;22.90;64.20;;;23.15;49.51;94128.78;5077314;28;20580;-39
2023/08/02 04:24:15;;;;;;;0.40;0.40;;;22.90;64.30;;;23.16;49.58;94140.31;5077065;28;20531;-39
2023/08/02 04:26:42;;;;;;;0.40;0.40;;;22.90;64.20;;;23.15;49.33;94136.03;5076120;28;20206;-39
2023/08/02 04:29:10;;;;;;;0.40;0.40;;;22.90;64.20;;;23.16;49.42;94148.34;5077161;28;20250;-39
2023/08/02 04:31:37;;;;;;;0.40;0.40;;;22.90;64.10;;;23.16;49.58;94140.31;5076865;28;20189;-39
2023/08/02 04:34:05;;;;;;;0.35;0.35;;;22.90;64.10;;;23.16;49.54;94134.94;5076832;28;20201;-39
2023/08/02 04:36:32;;;;;;;0.35;0.35;;;22.90;64.10;;;23.15;49.56;94134.16;5075623;28;20725;-39
2023/08/02 04:39:02;;;;;;;0.50;0.50;;;22.90;64.00;;;23.14;49.63;94132.56;5077011;28;20576;-39
2023/08/02 04:41:29;;;;;;;0.40;0.40;;;22.90;64.10;;;23.15;49.52;94139.50;5076684;28;20211;-39
2023/08/02 04:43:56;;;;;;;0.40;0.40;;;22.90;64.20;;;23.14;49.59;94137.13;5076501;28;20202;-39
2023/08/02 04:46:29;;;;;;;0.40;0.40;;;22.90;64.00;;;23.13;49.54;94135.53;5075535;28;20222;-39
2023/08/02 04:48:56;;;;;;;0.35;0.35;;;22.90;64.00;;;23.12;49.32;94142.75;5076585;28;20601;-39
2023/08/02 04:51:23;;;;;;;0.30;0.30;;;22.90;64.00;;;23.13;49.48;94143.53;5076175;28;20519;-39
2023/08/02 04:53:50;;;;;;;0.40;0.40;;;22.90;64.00;;;23.12;49.52;94137.41;5076244;28;20190;-39
2023/08/02 04:56:18;;;;;;;0.40;0.40;;;22.90;64.00;;;23.12;49.41;94136.59;5076680;28;20205;-39
2023/08/02 04:58:46;;;;;;;0.40;0.40;;;22.90;64.10;;;23.13;49.52;94120.28;5075345;28;20238;-39
2023/08/02 05:01:13;;;;;;;0.40;0.40;;;22.90;64.20;;;23.14;49.51;94116.53;5076233;28;20307;-39
2023/08/02 05:03:41;;;;;;;0.40;0.40;;;22.90;64.10;;;23.16;49.61;94118.91;5076576;28;20198;-39
2023/08/02 05:06:08;;;;;;;0.40;0.40;;;22.90;64.10;;;23.13;49.29;94125.63;5076162;28;20684;-39
2023/08/02 05:08:36;;;;;;;0.40;0.40;;;22.90;64.10;;;23.15;49.60;94122.66;5076415;28;20191;-39
2023/08/02 05:11:07;;;;;;;0.30;0.30;;;22.90;64.10;;;23.14;49.46;94119.19;5076349;28;20260;-39
2023/08/02 05:13:35;;;;;;;0.40;0.40;;;22.90;64.20;;;23.14;49.62;94124.56;5075995;28;20195;-39
2023/08/02 05:16:02;;;;;;;0.40;0.40;;;22.90;64.10;;;23.14;49.49;94129.91;5074948;28;20508;-39
2023/08/02 05:18:30;;;;;;;0.32;0.32;;;22.90;64.10;;;23.15;49.66;94131.47;5076230;28;20201;-39
2023/08/02 05:20:57;;;;;;;0.40;0.40;;;22.90;64.10;;;23.16;49.49;94134.94;5075216;28;20207;-39
2023/08/02 05:23:25;;;;;;;0.30;0.30;;;22.90;64.20;;;23.15;49.42;94118.09;5075854;28;20217;-39
2023/08/02 05:25:54;;;;;;;0.40;0.40;;;22.90;64.10;;;23.14;49.62;94116.53;5075617;28;20578;-39
2023/08/02 05:28:21;;;;;;;0.30;0.30;;;22.90;64.00;;;23.16;49.48;94121.59;5075983;28;20209;-39
2023/08/02 05:30:49;;;;;;;0.40;0.40;;;22.90;64.10;;;23.16;49.54;94122.38;5075629;28;20585;-39
2023/08/02 05:33:16;;;;;;;0.30;0.30;;;22.90;64.10;;;23.17;49.42;94120.53;5075608;28;20222;-39
2023/08/02 05:35:42;;;;;;;0.30;0.30;;;22.90;64.10;;;23.18;49.47;94125.56;5075471;28;20288;-39
2023/08/02 05:38:10;;;;;;;0.40;0.40;;;22.90;64.10;;;23.19;49.63;94139.75;5075568;28;20195;-39
2023/08/02 05:40:37;;;;;;;0.40;0.40;;;22.90;64.10;;;23.19;49.60;94137.06;5075659;28;20283;-39
2023/08/02 05:43:06;;;;;;;0.40;0.40;;;22.90;64.60;;;23.20;49.46;94133.31;5075461;28;20191;-39
2023/08/02 05:45:34;;;;;;;0.30;0.30;;;22.90;64.10;;;23.21;49.26;94136.78;5074210;28;20328;-39
2023/08/02 05:48:01;;;;;;;0.40;0.40;;;22.90;64.10;;;23.22;49.46;94131.16;5074544;28;20666;-39
2023/08/02 05:50:31;;;;;;;0.40;0.40;;;22.90;64.20;;;23.23;49.50;94130.06;5075896;28;20215;-39
2023/08/02 05:52:58;;;;;;;0.40;0.40;;;23.00;64.20;;;23.25;49.68;94122.53;5075858;28;20198;-39
2023/08/02 05:55:26;;;;;;;0.30;0.30;;;23.00;64.20;;;23.26;49.47;94117.97;5075342;28;20218;-39
2023/08/02 05:57:53;;;;;;;0.40;0.40;;;23.00;64.20;;;23.27;49.45;94114.22;5075549;28;20218;-39
2023/08/02 06:00:20;;;;;;;0.40;0.40;;;23.00;64.20;;;23.28;49.75;94118.50;5075155;28;20215;-39
2023/08/02 06:02:47;;;;;;;0.38;0.38;;;23.00;64.20;;;23.29;49.44;94118.19;5074252;28;20224;-39
2023/08/02 06:05:15;;;;;;;0.38;0.38;;;23.00;64.10;;;23.31;49.40;94117.91;5075083;28;20206;-39
2023/08/02 06:07:42;;;;;;;0.30;0.30;;;23.00;64.30;;;23.32;49.58;94111.47;5075110;28;20221;-39
2023/08/02 06:10:09;;;;;;;0.40;0.40;;;23.10;64.30;;;23.33;49.63;94111.16;5073995;28;20305;-39
2023/08/02 06:12:36;;;;;;;0.40;0.40;;;23.10;64.20;;;23.33;49.49;94110.38;5075106;28;20629;-39
2023/08/02 06:15:04;;;;;;;0.30;0.30;;;23.10;64.20;;;23.36;49.60;94120.47;5075010;28;20210;-39
2023/08/02 06:17:32;;;;;;;0.40;0.40;;;23.10;64.20;;;23.38;49.44;94126.34;5074850;28;20236;-39
2023/08/02 06:19:59;;;;;;;0.40;0.40;;;23.10;64.20;;;23.38;49.54;94130.91;5075332;28;20211;-39
2023/08/02 06:22:26;;;;;;;0.40;0.40;;;23.10;64.20;;;23.40;49.68;94128.72;5075531;28;20195;-39
2023/08/02 06:24:53;;;;;;;0.40;0.40;;;23.10;64.10;;;23.41;49.64;94130.31;5075190;28;20277;-39
2023/08/02 06:27:20;;;;;;;0.35;0.35;;;23.10;64.10;;;23.41;49.93;94125.78;5073931;28;20256;-39
2023/08/02 06:29:47;;;;;;;0.38;0.38;;;23.20;64.10;;;23.43;49.57;94128.16;5074870;28;20240;-39
2023/08/02 06:32:15;;;;;;;0.40;0.40;;;23.10;64.10;;;23.44;49.40;94127.84;5075182;28;20693;-39
2023/08/02 06:34:42;;;;;;;0.40;0.40;;;23.20;64.10;;;23.44;49.40;94125.19;5074659;28;20293;-39
2023/08/02 06:37:09;;;;;;;0.40;0.40;;;23.20;64.00;;;23.44;49.48;94133.22;5074830;28;20244;-39
2023/08/02 06:39:36;;;;;;;0.40;0.40;;;23.20;64.10;;;23.40;49.34;94128.72;5073784;28;20633;-39
2023/08/02 06:42:03;;;;;;;0.40;0.40;;;23.20;64.00;;;23.46;49.60;94135.59;5073917;28;20187;-39
2023/08/02 06:44:31;;;;;;;0.30;0.30;;;23.20;64.00;;;23.46;49.52;94127.56;5074774;28;20563;-39
2023/08/02 06:46:58;;;;;;;0.40;0.40;;;23.20;64.00;;;23.47;49.63;94126.47;5075051;28;20191;-39
2023/08/02 06:49:25;;;;;;;0.30;0.30;;;23.20;64.00;;;23.48;49.63;94131.53;5074715;28;20229;-39
2023/08/02 06:51:52;;;;;;;0.40;0.40;;;23.20;64.00;;;23.52;49.62;94136.31;5073839;28;20253;-39
2023/08/02 06:54:20;;;;;;;0.40;0.40;;;23.20;64.00;;;23.53;49.41;94133.31;5074643;28;20192;-39
2023/08/02 06:56:47;;;;;;;0.40;0.40;;;23.20;64.00;;;23.53;49.47;94135.22;5074509;28;20222;-39
2023/08/02 06:59:14;;;;;;;0.35;0.35;;;23.30;64.10;;;23.56;49.49;94134.63;5074616;28;20237;-39
2023/08/02 07:01:41;;;;;;;0.40;0.40;;;23.30;64.10;;;23.57;49.32;94142.38;5073653;28;20662;-39
2023/08/02 07:04:08;;;;;;;0.40;0.40;;;23.30;64.10;;;23.58;49.46;94127.91;5074792;28;20194;-39
2023/08/02 07:06:35;;;;;;;0.40;0.40;;;23.30;64.10;;;23.59;49.55;94132.16;5075053;28;20192;-39
2023/08/02 07:09:03;;;;;;;0.40;0.40;;;23.30;64.00;;;23.61;49.32;94121.97;5074358;28;20260;-39
2023/08/02 07:11:30;;;;;;;0.30;0.30;;;23.30;64.00;;;23.62;49.51;94115.53;5074499;28;20194;-39
2023/08/02 07:14:03;;;;;;;0.50;0.50;;;23.30;64.00;;;23.65;49.21;94112.25;5073797;28;20603;-39
2023/08/02 07:16:30;;;;;;;0.40;0.40;;;23.40;64.10;;;23.67;49.50;94115.44;5078109;28;20536;-39
2023/08/02 07:19:02;;;;;;;0.40;0.40;;;23.40;64.00;;;23.67;49.54;94120.78;5077368;28;20252;-39
2023/08/02 07:21:30;;;;;;;0.35;0.35;;;23.40;64.00;;;23.70;49.23;94114.03;5078162;28;20199;-39
2023/08/02 07:23:57;;;;;;;0.40;0.40;;;23.40;64.00;;;23.71;49.37;94117.53;5078091;28;20271;-39
2023/08/02 07:26:24;;;;;;;0.30;0.30;;;23.40;64.00;;;23.72;49.13;94116.44;5077913;28;20606;-39
2023/08/02 07:28:51;;;;;;;0.40;0.40;;;23.50;64.00;;;23.75;49.06;94107.81;5077961;28;20623;-39
2023/08/02 07:31:18;;;;;;;0.30;0.30;;;23.50;64.00;;;23.75;49.25;94102.44;5078007;28;20252;-39
2023/08/02 07:33:46;;;;;;;0.30;0.30;;;23.50;64.00;;;23.76;49.28;94098.69;5078233;28;20288;-39
2023/08/02 07:36:19;;;;;;;0.35;0.35;;;23.50;64.00;;;23.77;49.18;94093.03;5078080;28;20536;-36
2023/08/02 07:38:47;;;;;;;0.38;0.38;;;23.50;64.00;;;23.79;49.09;94092.72;5077047;28;20585;-38
2023/08/02 07:41:14;;;;;;;0.30;0.30;;;23.50;64.00;;;23.81;49.05;94090.56;5077831;28;20218;-39
2023/08/02 07:43:41;;;;;;;0.30;0.30;;;23.50;64.00;;;23.82;49.36;94086.78;5078457;28;20627;-39
2023/08/02 07:46:20;;;;;;;0.50;0.50;;;23.50;63.90;;;23.83;49.31;94083.81;5077416;28;20247;-36
2023/08/02 07:48:50;;;;;;;0.40;0.40;;;23.50;64.00;;;23.86;49.17;94076.28;5078273;28;20209;-36
2023/08/02 07:51:18;;;;;;;0.35;0.35;;;23.60;64.00;;;23.88;49.19;94080.25;5077749;28;20556;-39
2023/08/02 07:53:48;;;;;;;0.30;0.30;;;23.50;63.90;;;23.89;49.06;94073.81;5078025;28;20223;-39
2023/08/02 07:56:15;;;;;;;0.30;0.30;;;23.60;64.00;;;23.90;49.28;94075.41;5077490;28;20226;-37
2023/08/02 07:58:42;;;;;;;0.50;0.50;;;23.60;63.90;;;23.93;49.03;94077.50;5077562;28;20646;-39
2023/08/02 08:01:11;;;;;;;0.30;0.30;;;23.60;63.90;;;23.95;48.82;94091.41;5076489;28;20260;-36
2023/08/02 08:03:38;;;;;;;0.40;0.40;;;23.60;63.80;;;23.95;48.95;94075.34;5077666;28;20197;-36
2023/08/02 08:06:15;;;;;;;0.40;0.40;;;23.70;63.90;;;23.97;48.94;94077.72;5077368;28;20183;-36
2023/08/02 08:08:43;;;;;;;0.40;0.40;;;23.70;63.90;;;23.98;48.89;94081.97;5077452;28;20229;-36
2023/08/02 08:11:10;;;;;;;0.30;0.30;;;23.70;63.80;;;24.01;48.92;94081.41;5077680;28;20667;-36
2023/08/02 08:13:37;;;;;;;0.35;0.35;;;23.70;63.80;;;24.02;48.82;94079.50;5059752;28;20239;-36
2023/08/02 08:16:05;;;;;;;0.30;0.30;;;23.70;63.80;;;24.02;48.89;94074.94;5077113;28;20194;-36
2023/08/02 08:18:33;;;;;;;0.38;0.38;;;23.70;63.80;;;24.04;48.93;94078.09;5076657;28;20194;-36
2023/08/02 08:21:03;;;;;;;0.40;0.40;;;23.70;63.80;;;24.06;48.71;94072.44;5077306;28;20663;-36
2023/08/02 08:23:31;;;;;;;0.50;0.50;;;23.70;63.70;;;24.07;48.80;94068.69;5077771;28;20189;-36
2023/08/02 08:25:57;;;;;;;0.60;0.60;;;23.70;64.60;;;24.04;48.59;94062.03;5076904;28;20196;-36
2023/08/02 08:28:25;;;;;;;0.30;0.30;;;23.80;63.70;;;24.12;48.69;94063.22;5076460;28;20246;-36
2023/08/02 08:31:02;;;;;;;0.40;0.40;;;23.70;63.50;;;24.13;48.61;94054.09;5076946;28;20211;-36
2023/08/02 08:33:31;;;;;;;0.30;0.30;;;23.80;63.50;;;24.14;48.56;94064.53;5076953;28;20191;-36
2023/08/02 08:35:58;;;;;;;0.30;0.30;;;23.80;63.50;;;24.16;48.39;94061.53;5075815;28;20206;-36
2023/08/02 08:38:26;;;;;;;0.32;0.32;;;23.80;63.40;;;24.18;48.32;94063.91;5076886;28;20196;-36
2023/08/02 08:40:55;;;;;;;0.30;0.30;;;23.80;63.40;;;24.19;48.33;94060.94;5076400;28;20226;-36
2023/08/02 08:43:26;;;;;;;0.40;0.40;;;23.90;63.40;;;24.20;48.24;94043.75;5076763;28;20204;-36
2023/08/02 08:45:56;;;;;;;0.30;0.30;;;23.90;63.20;;;24.23;48.19;94047.72;5076432;28;20229;-36
2023/08/02 08:48:25;;;;;;;0.40;0.40;;;23.90;63.30;;;24.24;48.21;94043.97;5059559;28;20226;-36
2023/08/02 08:50:55;;;;;;;0.40;0.40;;;23.90;63.20;;;24.24;48.12;94039.41;5076747;28;20276;-36
2023/08/02 08:53:41;;;;;;;0.40;0.40;;;23.90;63.10;;;24.25;48.17;94032.16;5077139;28;20186;-36
2023/08/02 08:56:10;;;;;;;0.30;0.30;;;23.90;63.00;;;24.27;48.03;94044.16;5076312;28;20219;-36
2023/08/02 08:58:38;;;;;;;0.30;0.30;;;23.90;63.10;;;24.28;47.96;94056.47;5075486;28;20240;-36
2023/08/02 09:01:06;;;;;;;0.35;0.35;;;24.00;63.10;;;24.29;47.80;94049.22;5076274;28;20212;-36
2023/08/02 09:03:34;;;;;;;0.30;0.30;;;24.00;63.00;;;24.32;47.83;94047.84;5076827;28;20277;-36
2023/08/02 09:06:03;;;;;;;0.30;0.30;;;24.00;62.90;;;24.33;47.67;94047.53;5075201;28;20229;-36
2023/08/02 09:08:42;;;;;;;0.30;0.30;;;24.00;63.00;;;24.35;47.63;94041.88;5075390;28;20191;-36
2023/08/02 09:11:11;;;;;;;0.30;0.30;;;24.00;62.90;;;24.36;47.62;94046.13;5075600;28;20204;-36
2023/08/02 09:13:38;;;;;;;0.40;0.40;;;24.00;63.00;;;24.32;47.61;94040.59;5076080;28;20602;-36
2023/08/02 09:16:13;;;;;;;0.30;0.30;;;24.00;63.00;;;24.39;47.53;94054.38;5076013;28;20210;-36
2023/08/02 09:18:45;;;;;;;0.40;0.40;;;24.00;62.70;;;24.41;47.47;94044.16;5076337;28;20184;-36
2023/08/02 09:21:20;;;;;;;0.30;0.30;;;24.00;62.90;;;24.43;47.36;94038.47;5074872;28;20538;-36
2023/08/02 09:24:07;;;;;;;0.30;0.30;;;24.10;62.80;;;24.43;47.44;94043.84;5076263;28;20182;-36
2023/08/02 09:26:34;;;;;;;0.40;0.40;;;24.00;62.70;;;24.47;47.43;94036.78;5075410;28;20247;-36
2023/08/02 09:29:07;;;;;;;0.60;0.60;;;24.10;62.70;;;24.50;47.41;94038.06;5075838;28;20185;-36
2023/08/02 09:31:36;;;;;;;0.40;0.40;;;24.10;62.70;;;24.50;47.23;94044.22;5075782;28;20583;-36
2023/08/02 09:34:04;;;;;;;0.40;0.40;;;24.10;62.60;;;24.52;47.48;94047.38;5074883;28;20205;-36
2023/08/02 09:36:33;;;;;;;0.40;0.40;;;24.10;62.60;;;24.54;47.27;94053.25;5075709;28;20197;-36
2023/08/02 09:39:19;;;;;;;0.30;0.30;;;24.20;62.60;;;24.52;47.09;94041.25;5074321;28;20659;-36
2023/08/02 09:41:46;;;;;;;0.40;0.40;;;24.20;62.30;;;24.59;47.10;94038.94;5075542;28;20214;-36
2023/08/02 09:44:27;;;;;;;0.45;0.45;;;24.20;62.50;;;24.60;47.07;94029.81;5074374;28;20194;-36
2023/08/02 09:46:54;;;;;;;0.30;0.30;;;24.20;62.40;;;24.61;46.76;94028.72;5075200;28;20613;-36
2023/08/02 09:49:22;;;;;;;0.40;0.40;;;24.20;62.40;;;24.65;46.93;94028.91;5075986;28;20212;-36
2023/08/02 09:51:49;;;;;;;0.30;0.30;;;24.30;62.40;;;24.66;46.78;94023.25;5075590;28;20212;-36
2023/08/02 09:54:16;;;;;;;0.30;0.30;;;24.20;62.30;;;24.69;46.97;94028.00;5075955;28;20209;-36
2023/08/02 09:56:44;;;;;;;0.30;0.30;;;24.20;62.30;;;24.69;46.75;94017.28;5075355;28;20211;-36
2023/08/02 09:59:13;;;;;;;0.50;0.50;;;24.30;62.30;;;24.72;46.39;94021.28;5075839;28;20531;-36
2023/08/02 10:01:40;;;;;;;0.30;0.30;;;24.30;62.30;;;24.73;46.89;94014.78;5057545;28;20225;-36
2023/08/02 10:04:10;;;;;;;0.50;0.50;;;24.30;62.30;;;24.74;46.81;94019.88;5075524;28;20625;-36
2023/08/02 10:06:44;;;;;;;0.40;0.40;;;24.40;62.20;;;24.76;46.76;94012.28;5074378;28;20248;-36
2023/08/02 10:09:16;;;;;;;0.50;0.50;;;24.30;62.20;;;24.77;46.72;94008.53;5075240;28;20187;-36
2023/08/02 10:12:08;;;;;;;0.30;0.30;;;24.40;62.20;;;24.77;46.59;94011.19;5074359;28;20187;-36
2023/08/02 10:14:36;;;;;;;0.30;0.30;;;24.40;62.00;;;24.77;46.27;93995.13;5074346;28;20530;-36
2023/08/02 10:17:03;;;;;;;0.30;0.30;;;24.40;62.00;;;24.79;46.17;93992.13;5075085;28;20226;-36
2023/08/02 10:19:34;;;;;;;0.40;0.40;;;24.40;61.90;;;24.80;46.24;93991.03;5075033;28;20642;-36
2023/08/02 10:22:06;;;;;;;0.30;0.30;;;24.40;62.00;;;24.81;46.27;93992.63;5075013;28;20203;-36
2023/08/02 10:24:33;;;;;;;0.57;0.57;;;24.40;61.90;;;24.82;46.43;93999.56;5074461;28;20207;-36
2023/08/02 10:27:06;;;;;;;0.60;0.60;;;24.40;62.00;;;24.83;46.08;94006.53;5074349;28;20569;-36